createdAt,value
2023-02-22T04:47:27.963Z,3.20
2023-02-22T04:50:19.023Z,3.20
2023-02-22T04:52:45.788Z,3.10
2023-02-22T04:55:12.448Z,3.10
2023-02-22T04:57:39.230Z,3.10
2023-02-22T05:00:06.484Z,3.10
2023-02-22T05:02:33.276Z,2.90
2023-02-22T05:04:59.982Z,3.00
2023-02-22T05:07:26.746Z,3.00
2023-02-22T05:09:53.430Z,3.10
2023-02-22T05:12:20.120Z,3.20
2023-02-22T05:14:47.002Z,3.20
2023-02-22T05:17:13.867Z,3.20
2023-02-22T05:19:41.992Z,3.20
2023-02-22T05:22:08.800Z,3.30
2023-02-22T05:24:35.547Z,3.30
2023-02-22T05:27:02.213Z,3.20
2023-02-22T05:29:28.891Z,3.00
2023-02-22T05:31:55.789Z,3.20
2023-02-22T05:34:22.536Z,3.30
2023-02-22T05:36:49.167Z,3.30
2023-02-22T05:39:16.290Z,3.30
2023-02-22T05:41:43.049Z,3.40
2023-02-22T05:44:09.703Z,3.40
2023-02-22T05:46:36.376Z,3.30
2023-02-22T05:49:03.453Z,3.30
2023-02-22T05:51:30.089Z,3.30
2023-02-22T05:53:56.799Z,3.40
2023-02-22T05:56:25.987Z,3.40
2023-02-22T05:58:53.146Z,3.40
2023-02-22T06:01:20.258Z,3.30
2023-02-22T06:03:50.003Z,3.20
2023-02-22T06:06:19.603Z,3.10
2023-02-22T06:08:47.901Z,3.10
2023-02-22T06:11:14.894Z,2.90
2023-02-22T06:13:41.844Z,3.00
2023-02-22T06:16:08.865Z,3.20
2023-02-22T06:18:35.565Z,3.20
2023-02-22T06:21:02.369Z,3.30
2023-02-22T06:23:29.091Z,3.30
2023-02-22T06:25:55.727Z,3.30
2023-02-22T06:28:23.691Z,3.40
2023-02-22T06:30:50.409Z,3.40
2023-02-22T06:33:17.098Z,3.30
2023-02-22T06:35:43.876Z,3.30
2023-02-22T06:38:10.733Z,3.40
2023-02-22T06:40:37.388Z,3.50
2023-02-22T06:43:04.101Z,3.30
2023-02-22T06:45:31.083Z,3.30
2023-02-22T06:47:57.753Z,3.30
2023-02-22T06:50:30.194Z,3.50
2023-02-22T06:52:57.884Z,3.60
2023-02-22T06:55:28.048Z,3.70
2023-02-22T06:57:54.895Z,3.80
2023-02-22T07:00:24.898Z,4.00
2023-02-22T07:02:53.255Z,4.10
2023-02-22T07:05:21.735Z,4.20
2023-02-22T07:07:49.672Z,4.30
2023-02-22T07:10:23.549Z,4.20
2023-02-22T07:12:52.374Z,4.20
2023-02-22T07:15:21.592Z,4.30
2023-02-22T07:17:48.490Z,4.30
2023-02-22T07:20:16.152Z,4.20
2023-02-22T07:22:42.929Z,4.40
2023-02-22T07:25:11.187Z,4.60
2023-02-22T07:27:39.645Z,4.60
2023-02-22T07:30:07.955Z,4.40
2023-02-22T07:32:34.769Z,4.40
2023-02-22T07:35:02.906Z,4.70
2023-02-22T07:37:30.224Z,4.80
2023-02-22T07:39:56.921Z,4.80
2023-02-22T07:42:23.781Z,4.90
2023-02-22T07:44:50.483Z,5.20
2023-02-22T07:47:17.148Z,5.30
2023-02-22T07:49:43.850Z,5.60
2023-02-22T07:52:12.525Z,5.80
2023-02-22T07:54:39.344Z,5.90
2023-02-22T07:57:06.022Z,6.10
2023-02-22T07:59:33.846Z,6.30
2023-02-22T08:02:00.749Z,6.30
2023-02-22T08:04:27.400Z,6.40
2023-02-22T08:06:54.084Z,6.70
2023-02-22T08:09:20.689Z,6.90
2023-02-22T08:11:47.331Z,7.30
2023-02-22T08:14:17.347Z,7.60
2023-02-22T08:16:44.079Z,7.90
2023-02-22T08:19:10.734Z,8.20
2023-02-22T08:21:37.422Z,8.30
2023-02-22T08:24:04.330Z,8.30
2023-02-22T08:26:31.106Z,8.40
2023-02-22T08:28:57.794Z,8.60
2023-02-22T08:31:24.478Z,8.70
2023-02-22T08:33:51.241Z,9.30
2023-02-22T08:36:18.602Z,9.90
2023-02-22T08:38:45.283Z,10.40
2023-02-22T08:41:11.979Z,10.60
2023-02-22T08:43:38.595Z,10.80
2023-02-22T08:46:05.381Z,11.10
2023-02-22T08:48:32.047Z,11.30
2023-02-22T08:50:58.834Z,11.60
2023-02-22T08:53:25.654Z,11.90
2023-02-22T08:55:52.900Z,12.10
2023-02-22T08:58:19.659Z,12.40
2023-02-22T09:00:46.379Z,12.70
2023-02-22T09:03:14.861Z,13.50
2023-02-22T09:05:43.437Z,14.20
2023-02-22T09:08:10.754Z,14.60
2023-02-22T09:10:37.562Z,14.80
2023-02-22T09:13:04.816Z,15.20
2023-02-22T09:15:32.399Z,15.20
2023-02-22T09:17:59.572Z,14.90
2023-02-22T09:20:27.069Z,15.00
2023-02-22T09:22:55.235Z,15.50
2023-02-22T09:25:22.664Z,16.00
2023-02-22T09:27:53.970Z,17.10
2023-02-22T09:30:32.592Z,18.50
2023-02-22T09:33:02.419Z,19.90
2023-02-22T09:35:29.898Z,20.50
2023-02-22T09:37:58.780Z,20.20
2023-02-22T09:40:30.167Z,20.10
2023-02-22T09:43:24.762Z,20.80
2023-02-22T09:46:03.023Z,21.80
2023-02-22T09:48:33.948Z,22.70
2023-02-22T09:51:05.237Z,23.20
2023-02-22T09:53:37.331Z,24.20
2023-02-22T09:56:10.993Z,25.10
2023-02-22T09:58:45.797Z,25.50
2023-02-22T10:01:28.080Z,26.70
2023-02-22T10:04:23.109Z,27.20
2023-02-22T10:07:15.477Z,27.60
2023-02-22T10:09:43.528Z,28.90
2023-02-22T10:12:25.551Z,29.10
2023-02-22T10:15:05.190Z,29.90
2023-02-22T10:17:50.001Z,30.50
2023-02-22T10:20:42.883Z,30.00
2023-02-22T10:23:29.794Z,29.60
2023-02-22T10:26:14.750Z,29.40
2023-02-22T10:29:08.438Z,28.70
2023-02-22T10:31:42.438Z,28.60
2023-02-22T10:34:17.278Z,28.30
2023-02-22T10:36:49.207Z,28.20
2023-02-22T10:39:38.796Z,28.30
2023-02-22T10:42:07.936Z,27.40
2023-02-22T10:44:35.999Z,26.50
2023-02-22T10:47:06.038Z,26.30
2023-02-22T10:49:40.992Z,26.90
2023-02-22T10:52:34.453Z,27.60
2023-02-22T10:55:14.665Z,28.00
2023-02-22T10:57:44.237Z,28.70
2023-02-22T11:00:29.536Z,28.40
2023-02-22T11:03:01.497Z,27.80
2023-02-22T11:05:28.935Z,28.20
2023-02-22T11:08:20.671Z,29.20
2023-02-22T11:10:48.695Z,29.60
2023-02-22T11:13:25.811Z,29.70
2023-02-22T11:15:54.241Z,29.70
2023-02-22T11:18:33.738Z,29.60
2023-02-22T11:21:07.841Z,29.70
2023-02-22T11:23:38.245Z,30.40
2023-02-22T11:26:09.519Z,30.90
2023-02-22T11:28:37.328Z,30.00
2023-02-22T11:31:18.210Z,27.30
2023-02-22T11:36:40.267Z,24.10
2023-02-22T11:39:35.428Z,22.70
2023-02-22T11:42:23.187Z,21.40
2023-02-22T11:45:07.529Z,21.60
2023-02-22T11:47:35.712Z,21.10
2023-02-22T11:50:10.089Z,21.40
2023-02-22T11:52:44.714Z,22.50
2023-02-22T11:55:43.099Z,23.80
2023-02-22T11:58:37.869Z,24.40
2023-02-22T12:01:25.534Z,25.20
2023-02-22T12:04:15.641Z,24.40
2023-02-22T12:07:05.905Z,23.80
2023-02-22T12:09:51.671Z,22.20
2023-02-22T12:12:27.541Z,21.80
2023-02-22T12:15:05.125Z,20.90
2023-02-22T12:17:54.309Z,20.50
2023-02-22T12:20:37.119Z,20.60
2023-02-22T12:23:22.583Z,20.80
2023-02-22T12:26:16.526Z,20.30
2023-02-22T12:29:06.172Z,20.50
2023-02-22T12:32:12.238Z,20.80
2023-02-22T12:35:05.380Z,19.60
2023-02-22T12:38:04.702Z,19.10
2023-02-22T12:40:57.053Z,19.00
2023-02-22T12:43:42.886Z,19.00
2023-02-22T12:46:12.052Z,19.10
2023-02-22T12:48:59.027Z,19.20
2023-02-22T12:51:41.639Z,18.50
2023-02-22T12:54:23.354Z,18.50
2023-02-22T12:56:52.988Z,18.80
2023-02-22T12:59:25.475Z,18.60
2023-02-22T13:01:58.762Z,18.50
2023-02-22T13:04:25.490Z,18.40
2023-02-22T13:07:10.156Z,18.20
2023-02-22T13:10:06.587Z,17.70
2023-02-22T13:12:52.508Z,17.00
2023-02-22T13:15:24.053Z,17.10
2023-02-22T13:18:19.160Z,16.80
2023-02-22T13:21:22.919Z,16.50
2023-02-22T13:24:06.738Z,16.20
2023-02-22T13:26:52.033Z,16.00
2023-02-22T13:29:36.916Z,16.20
2023-02-22T13:32:18.969Z,16.50
2023-02-22T13:34:51.321Z,16.60
2023-02-22T13:37:35.449Z,17.00
2023-02-22T13:40:26.710Z,17.10
2023-02-22T13:43:23.086Z,16.80
2023-02-22T13:46:17.951Z,16.50
2023-02-22T13:48:56.648Z,16.10
2023-02-22T13:51:23.268Z,16.10
2023-02-22T13:54:19.703Z,16.10
2023-02-22T13:56:49.131Z,16.10
2023-02-22T13:59:36.270Z,16.60
2023-02-22T14:02:04.851Z,16.70
2023-02-22T14:04:31.445Z,16.70
2023-02-22T14:07:29.911Z,16.80
2023-02-22T14:09:59.132Z,16.50
2023-02-22T14:12:33.437Z,16.40
2023-02-22T14:15:28.258Z,16.20
2023-02-22T14:17:58.289Z,15.90
2023-02-22T14:20:36.136Z,15.90
2023-02-22T14:23:30.129Z,16.10
2023-02-22T14:26:10.209Z,15.90
2023-02-22T14:28:42.699Z,16.00
2023-02-22T14:31:17.444Z,16.60
2023-02-22T14:33:50.596Z,17.10
2023-02-22T14:36:18.705Z,17.40
2023-02-22T14:38:47.098Z,17.20
2023-02-22T14:41:16.803Z,16.90
2023-02-22T14:43:45.232Z,16.60
2023-02-22T14:46:20.632Z,16.30
2023-02-22T14:48:50.496Z,16.10
2023-02-22T14:51:31.706Z,16.00
2023-02-22T14:54:10.144Z,15.70
2023-02-22T14:56:52.073Z,15.50
2023-02-22T14:59:24.074Z,15.30
2023-02-22T15:02:11.365Z,15.20
2023-02-22T15:04:42.290Z,15.10
2023-02-22T15:07:30.366Z,15.00
2023-02-22T15:10:45.930Z,15.00
2023-02-22T15:13:23.664Z,15.00
2023-02-22T15:16:03.357Z,14.90
2023-02-22T15:18:36.984Z,14.90
2023-02-22T15:21:15.889Z,15.00
2023-02-22T15:23:53.884Z,15.10
2023-02-22T15:26:31.257Z,15.10
2023-02-22T15:28:59.765Z,14.70
2023-02-22T15:31:32.862Z,14.40
2023-02-22T15:34:24.282Z,14.20
2023-02-22T15:36:56.198Z,13.90
2023-02-22T15:39:29.775Z,13.80
2023-02-22T15:42:07.956Z,13.80
2023-02-22T15:44:40.435Z,14.00
2023-02-22T15:47:11.656Z,13.90
2023-02-22T15:49:38.350Z,13.80
2023-02-22T15:52:19.686Z,13.60
2023-02-22T15:54:50.263Z,13.60
2023-02-22T15:57:20.278Z,13.50
2023-02-22T15:59:53.579Z,13.50
2023-02-22T16:02:30.236Z,13.40
2023-02-22T16:05:00.647Z,13.50
2023-02-22T16:07:28.016Z,13.30
2023-02-22T16:09:54.959Z,13.40
2023-02-22T16:12:21.625Z,13.40
2023-02-22T16:14:49.024Z,13.30
2023-02-22T16:18:01.663Z,13.40
2023-02-22T16:20:30.592Z,13.30
2023-02-22T16:22:57.933Z,13.20
2023-02-22T16:25:32.738Z,13.10
2023-02-22T16:28:06.021Z,13.00
2023-02-22T16:30:39.465Z,12.90
2023-02-22T16:33:13.461Z,12.80
2023-02-22T16:35:41.051Z,12.70
2023-02-22T16:38:16.814Z,12.80
2023-02-22T16:40:53.789Z,13.00
2023-02-22T16:43:26.267Z,13.00
2023-02-22T16:45:53.583Z,13.10
2023-02-22T16:48:21.456Z,13.30
2023-02-22T16:50:51.392Z,13.40
2023-02-22T16:53:20.810Z,13.30
2023-02-22T16:55:48.242Z,13.10
2023-02-22T16:58:17.204Z,12.90
2023-02-22T17:00:44.503Z,12.80
2023-02-22T17:03:21.115Z,12.70
2023-02-22T17:05:47.901Z,12.60
2023-02-22T17:08:16.308Z,12.70
2023-02-22T17:10:43.793Z,12.90
2023-02-22T17:13:22.805Z,13.10
2023-02-22T17:15:51.694Z,13.20
2023-02-22T17:18:22.760Z,13.10
2023-02-22T17:20:51.144Z,13.20
2023-02-22T17:23:18.620Z,13.20
2023-02-22T17:25:55.711Z,13.30
2023-02-22T17:28:24.419Z,13.20
2023-02-22T17:30:51.966Z,13.00
2023-02-22T17:33:21.964Z,12.90
2023-02-22T17:35:48.692Z,12.90
2023-02-22T17:38:18.687Z,12.90
2023-02-22T17:40:52.016Z,12.90
2023-02-22T17:43:19.333Z,12.80
2023-02-22T17:45:46.337Z,12.70
2023-02-22T17:48:14.100Z,12.70
2023-02-22T17:50:42.476Z,12.50
2023-02-22T17:53:11.183Z,12.40
2023-02-22T17:55:40.532Z,12.20
2023-02-22T17:58:14.339Z,12.10
2023-02-22T18:00:44.426Z,12.00
2023-02-22T18:03:16.060Z,12.00
2023-02-22T18:05:48.454Z,11.80
2023-02-22T18:08:15.750Z,11.80
2023-02-22T18:10:43.769Z,11.90
2023-02-22T18:13:14.083Z,11.80
2023-02-22T18:15:40.855Z,11.70
2023-02-22T18:18:08.388Z,11.80
2023-02-22T18:20:43.351Z,11.80
2023-02-22T18:23:17.564Z,11.70
2023-02-22T18:26:09.194Z,11.70
2023-02-22T18:28:36.990Z,11.70
2023-02-22T18:31:15.355Z,11.70
2023-02-22T18:33:43.847Z,11.80
2023-02-22T18:36:11.862Z,11.70
2023-02-22T18:38:43.138Z,11.70
2023-02-22T18:41:15.805Z,11.80
2023-02-22T18:43:42.965Z,11.90
2023-02-22T18:46:20.364Z,11.80
2023-02-22T18:48:48.888Z,11.90
2023-02-22T18:51:17.532Z,11.80
2023-02-22T18:53:47.503Z,11.90
2023-02-22T18:56:21.757Z,11.90
2023-02-22T18:58:52.965Z,12.10
2023-02-22T19:01:20.617Z,12.10
2023-02-22T19:03:49.101Z,11.90
2023-02-22T19:06:17.712Z,11.80
2023-02-22T19:08:45.876Z,11.80
2023-02-22T19:11:19.247Z,11.90
2023-02-22T19:13:47.863Z,11.90
2023-02-22T19:16:17.257Z,11.80
2023-02-22T19:18:44.354Z,11.70
2023-02-22T19:21:12.932Z,11.60
2023-02-22T19:23:45.479Z,11.50
2023-02-22T19:26:14.067Z,11.50
2023-02-22T19:28:40.759Z,11.50
2023-02-22T19:31:34.433Z,11.50
2023-02-22T19:34:11.989Z,11.30
2023-02-22T19:36:45.770Z,11.20
2023-02-22T19:39:17.334Z,11.30
2023-02-22T19:41:44.073Z,11.20
2023-02-22T19:44:10.937Z,11.10
2023-02-22T19:46:37.881Z,11.10
2023-02-22T19:49:05.070Z,11.10
2023-02-22T19:51:33.336Z,11.00
2023-02-22T19:54:03.263Z,11.10
2023-02-22T19:56:31.174Z,11.20
2023-02-22T19:59:01.506Z,11.30
2023-02-22T20:01:33.267Z,11.30
2023-02-22T20:04:08.957Z,11.40
2023-02-22T20:06:42.160Z,11.30
2023-02-22T20:09:12.690Z,11.30
2023-02-22T20:11:39.918Z,11.30
2023-02-22T20:14:06.675Z,11.20
2023-02-22T20:16:35.320Z,11.20
2023-02-22T20:19:02.096Z,11.30
2023-02-22T20:21:33.380Z,11.30
2023-02-22T20:24:08.592Z,11.30
2023-02-22T20:26:37.248Z,11.30
2023-02-22T20:29:06.404Z,11.30
2023-02-22T20:31:33.576Z,11.20
2023-02-22T20:34:01.491Z,11.20
2023-02-22T20:36:30.429Z,10.90
2023-02-22T20:38:59.542Z,11.10
2023-02-22T20:41:32.165Z,11.10
2023-02-22T20:44:00.918Z,11.20
2023-02-22T20:46:31.393Z,11.10
2023-02-22T20:49:00.202Z,11.10
2023-02-22T20:51:28.548Z,11.10
2023-02-22T20:53:59.729Z,11.00
2023-02-22T20:56:28.833Z,11.10
2023-02-22T20:58:57.640Z,11.20
2023-02-22T21:01:24.498Z,11.20
2023-02-22T21:03:51.558Z,11.10
2023-02-22T21:06:21.356Z,11.00
2023-02-22T21:08:53.700Z,11.10
2023-02-22T21:11:21.681Z,11.20
2023-02-22T21:13:48.899Z,11.10
2023-02-22T21:16:19.628Z,11.10
2023-02-22T21:18:46.421Z,11.00
2023-02-22T21:21:13.419Z,11.10
2023-02-22T21:23:40.995Z,11.20
2023-02-22T21:26:14.413Z,11.10
2023-02-22T21:28:51.033Z,11.10
2023-02-22T21:31:20.456Z,11.10
2023-02-22T21:33:50.408Z,11.00
2023-02-22T21:36:17.533Z,11.00
2023-02-22T21:38:46.802Z,11.00
2023-02-22T21:41:15.240Z,11.00
2023-02-22T21:43:42.849Z,11.10
2023-02-22T21:46:10.855Z,11.10
2023-02-22T21:48:48.299Z,11.20
2023-02-22T21:51:19.138Z,10.90
2023-02-22T21:53:52.276Z,10.90
2023-02-22T21:56:24.076Z,10.90
2023-02-22T21:58:59.042Z,11.00
2023-02-22T22:01:31.531Z,11.00
2023-02-22T22:03:59.983Z,11.10
2023-02-22T22:06:28.491Z,11.00
2023-02-22T22:08:56.335Z,10.90
2023-02-22T22:11:25.091Z,10.80
2023-02-22T22:13:57.334Z,10.70
2023-02-22T22:16:27.174Z,10.70
2023-02-22T22:18:55.107Z,10.70
2023-02-22T22:21:23.809Z,10.70
2023-02-22T22:23:55.753Z,10.50
2023-02-22T22:26:24.613Z,10.50
2023-02-22T22:28:54.474Z,10.50
2023-02-22T22:31:23.664Z,10.50
2023-02-22T22:33:50.820Z,10.60
2023-02-22T22:36:19.490Z,10.70
2023-02-22T22:38:48.835Z,10.60
2023-02-22T22:41:18.819Z,10.50
2023-02-22T22:43:46.381Z,10.40
2023-02-22T22:46:17.871Z,10.40
2023-02-22T22:48:46.996Z,10.40
2023-02-22T22:51:18.268Z,10.50
2023-02-22T22:53:47.297Z,10.50
2023-02-22T22:56:17.400Z,10.50
2023-02-22T22:58:49.543Z,10.50
2023-02-22T23:01:18.473Z,10.60
2023-02-22T23:03:55.280Z,10.60
2023-02-22T23:06:32.045Z,10.50
2023-02-22T23:09:11.209Z,10.30
2023-02-22T23:11:44.407Z,10.10
2023-02-22T23:14:19.476Z,10.10
2023-02-22T23:16:51.575Z,9.90
2023-02-22T23:19:19.237Z,9.80
2023-02-22T23:21:50.264Z,9.60
2023-02-22T23:24:20.646Z,9.50
2023-02-22T23:26:50.740Z,9.50
2023-02-22T23:29:19.235Z,9.50
2023-02-22T23:31:48.293Z,9.40
2023-02-22T23:34:21.222Z,9.40
2023-02-22T23:36:48.462Z,9.50
2023-02-22T23:39:17.266Z,9.60
2023-02-22T23:41:44.280Z,9.60
2023-02-22T23:44:13.976Z,9.60
2023-02-22T23:46:40.867Z,9.80
2023-02-22T23:49:09.834Z,9.90
2023-02-22T23:51:44.419Z,9.80
2023-02-22T23:54:14.042Z,9.90
2023-02-22T23:56:47.090Z,10.00
2023-02-22T23:59:14.566Z,10.10
